MDT,Max TemperatureF,Mean TemperatureF,Min TemperatureF,Max Dew PointF,MeanDew PointF,Min DewpointF,Max Humidity, Mean Humidity, Min Humidity, Max Sea Level PressureIn, Mean Sea Level PressureIn, Min Sea Level PressureIn, Max VisibilityMiles, Mean VisibilityMiles, Min VisibilityMiles, Max Wind SpeedMPH, Mean Wind SpeedMPH, Max Gust SpeedMPH,PrecipitationIn, CloudCover, Events, WindDirDegrees
2012-10-1,82,67,52,40,35,30,59,33,14,30.27,30.19,30.13,10,10,10,10,5,,0.00,0,,315
2012-10-2,84,68,51,43,38,32,61,36,17,30.20,30.10,29.99,10,10,10,12,5,17,0.00,0,,172
2012-10-3,91,70,50,36,30,23,54,26,11,30.11,30.05,30.01,10,10,10,22,6,32,0.00,0,,262
2012-10-4,89,72,55,32,29,25,34,19,11,30.25,30.16,30.07,10,10,10,22,10,30,0.00,0,,190
2012-10-5,86,72,57,34,29,22,37,22,12,30.20,30.10,29.99,10,10,10,10,3,17,0.00,0,,114
2012-10-6,80,67,54,42,33,23,55,33,15,30.12,30.05,29.94,10,10,10,13,5,,0.00,0,,159
2012-10-7,71,56,42,39,37,33,69,49,27,30.18,30.11,30.04,10,10,10,10,6,,0.00,0,,171
2012-10-8,83,63,43,39,36,28,77,41,17,30.19,30.08,29.96,10,10,10,17,6,22,0.00,0,,231
2012-10-9,82,68,53,36,31,28,41,27,16,30.14,30.08,30.02,10,10,10,14,5,,0.00,0,,184
2012-10-10,83,67,51,36,32,28,51,30,15,30.22,30.12,30.02,10,10,10,18,7,24,0.00,0,,211
2012-10-11,82,68,54,49,39,31,72,41,17,30.16,30.11,30.07,10,10,10,21,8,29,0.00,1,,193
2012-10-12,81,66,52,54,42,22,79,49,15,30.14,30.06,29.94,10,10,7,32,9,41,0.00,2,Rain-Thunderstorm,201
2012-10-13,73,61,49,32,30,24,50,33,18,30.22,30.13,30.07,10,10,10,21,10,29,0.00,0,,341
2012-10-14,75,60,44,37,33,29,62,39,20,30.35,30.27,30.20,10,10,10,15,7,18,0.00,0,,343
2012-10-15,78,60,42,33,30,26,59,36,14,30.27,30.16,30.04,10,10,10,13,5,,0.00,0,,169
2012-10-16,81,62,44,31,27,20,51,28,14,30.07,29.97,29.85,10,10,10,12,5,17,0.00,0,,263
2012-10-17,84,68,51,33,25,11,35,20,13,30.05,29.95,29.88,10,10,10,22,9,30,0.00,0,,347
2012-10-18,79,63,47,20,12,4,21,14,11,30.17,30.10,30.04,10,10,10,14,6,18,0.00,0,,347
2012-10-19,79,62,45,23,19,15,29,20,12,30.17,30.08,29.99,10,10,10,14,7,17,0.00,0,,335
2012-10-20,82,63,44,31,22,17,36,23,11,30.05,29.96,29.85,10,10,10,14,5,25,0.00,0,,281
2012-10-21,82,66,49,37,33,24,51,30,17,30.05,29.96,29.89,10,10,10,28,6,33,0.00,0,,180
2012-10-22,79,62,45,38,34,30,66,37,17,30.08,30.00,29.94,10,10,10,16,6,24,0.00,0,,171
2012-10-23,84,64,43,32,30,24,58,31,13,30.08,30.00,29.93,10,10,10,17,6,24,0.00,0,,187
2012-10-24,83,69,55,33,28,19,39,25,10,29.99,29.92,29.79,10,10,10,20,6,29,0.00,0,,198
2012-10-25,66,56,46,24,18,11,34,22,14,30.15,30.07,29.94,10,10,10,22,12,26,0.00,0,,340
2012-10-26,59,48,36,24,18,11,56,33,17,30.34,30.25,30.13,10,10,10,15,9,23,0.00,0,,2
2012-10-27,63,46,29,27,23,20,67,44,23,30.28,30.19,30.09,10,10,10,9,4,,0.00,0,,217
2012-10-28,70,52,35,23,19,16,57,32,14,30.25,30.19,30.12,10,10,10,10,4,,0.00,0,,301
2012-10-29,76,57,38,20,17,14,37,24,12,30.29,30.21,30.13,10,10,10,10,5,,0.00,0,,330
2012-10-30,77,58,40,23,17,12,33,21,13,30.24,30.16,30.09,10,10,10,15,6,18,0.00,0,,325
2012-10-31,75,59,43,23,19,16,34,24,14,30.24,30.16,30.11,10,10,10,13,7,,0.00,0,,320